createdAt,value
2022-11-03T00:00:52.269Z,11.55
2022-11-03T00:01:54.644Z,11.57
2022-11-03T00:02:56.924Z,11.58
2022-11-03T00:03:59.044Z,11.59
2022-11-03T00:05:21.084Z,11.58
2022-11-03T00:06:23.166Z,11.65
2022-11-03T00:07:25.296Z,11.60
2022-11-03T00:08:27.400Z,11.67
2022-11-03T00:09:31.326Z,11.69
2022-11-03T00:10:33.429Z,11.69
2022-11-03T00:11:37.445Z,11.79
2022-11-03T00:12:39.588Z,11.72
2022-11-03T00:13:43.664Z,11.86
2022-11-03T00:14:45.810Z,11.76
2022-11-03T00:15:49.010Z,11.76
2022-11-03T00:16:51.107Z,11.75
2022-11-03T00:17:53.187Z,11.76
2022-11-03T00:18:55.945Z,11.76
2022-11-03T00:19:58.055Z,11.73
2022-11-03T00:21:02.254Z,11.78
2022-11-03T00:22:04.378Z,11.67
2022-11-03T00:23:06.694Z,11.66
2022-11-03T00:24:09.291Z,11.79
2022-11-03T00:25:11.384Z,11.76
2022-11-03T00:26:16.220Z,11.83
2022-11-03T00:27:18.327Z,11.78
2022-11-03T00:28:20.476Z,11.72
2022-11-03T00:29:22.678Z,11.71
2022-11-03T00:30:24.869Z,11.69
2022-11-03T00:31:29.193Z,11.79
2022-11-03T00:32:31.301Z,11.73
2022-11-03T00:33:33.924Z,11.77
2022-11-03T00:34:36.082Z,11.81
2022-11-03T00:35:38.256Z,11.79
2022-11-03T00:36:42.445Z,11.83
2022-11-03T00:37:44.579Z,11.72
2022-11-03T00:38:47.345Z,11.78
2022-11-03T00:39:49.487Z,11.76
2022-11-03T00:40:59.615Z,11.84
2022-11-03T00:42:01.771Z,11.77
2022-11-03T00:43:04.118Z,11.71
2022-11-03T00:44:06.786Z,11.68
2022-11-03T00:45:09.405Z,11.71
2022-11-03T00:46:11.586Z,11.74
2022-11-03T00:47:13.723Z,11.72
2022-11-03T00:48:31.303Z,11.73
2022-11-03T00:49:33.469Z,11.77
2022-11-03T00:50:35.564Z,11.77
2022-11-03T00:51:37.694Z,11.84
2022-11-03T00:52:39.875Z,11.78
2022-11-03T00:53:45.980Z,11.91
2022-11-03T00:54:52.700Z,11.87
2022-11-03T00:55:57.701Z,11.78
2022-11-03T00:56:59.804Z,11.77
2022-11-03T00:58:01.927Z,11.78
2022-11-03T00:59:05.392Z,11.91
2022-11-03T01:00:08.188Z,11.85
2022-11-03T01:01:42.305Z,11.84
2022-11-03T01:02:47.248Z,11.75
2022-11-03T01:04:10.506Z,11.81
2022-11-03T01:05:31.328Z,11.79
2022-11-03T01:06:51.045Z,11.81
2022-11-03T01:07:53.408Z,11.81
2022-11-03T01:08:55.645Z,11.80
2022-11-03T01:09:57.837Z,11.76
2022-11-03T01:11:26.893Z,11.97
2022-11-03T01:12:29.056Z,11.82
2022-11-03T01:13:31.176Z,11.81
2022-11-03T01:14:33.407Z,11.78
2022-11-03T01:15:35.575Z,11.78
2022-11-03T01:16:38.098Z,11.81
2022-11-03T01:17:40.918Z,11.80
2022-11-03T01:18:43.056Z,11.80
2022-11-03T01:19:45.687Z,11.82
2022-11-03T01:20:53.725Z,11.84
2022-11-03T01:21:55.882Z,11.82
2022-11-03T01:22:58.441Z,11.81
2022-11-03T01:24:05.022Z,11.95
2022-11-03T01:25:07.588Z,11.83
2022-11-03T01:26:11.416Z,11.86
2022-11-03T01:27:16.586Z,11.87
2022-11-03T01:28:18.803Z,11.83
2022-11-03T01:29:21.248Z,11.78
2022-11-03T01:30:23.388Z,11.81
2022-11-03T01:31:26.782Z,11.83
2022-11-03T01:32:28.915Z,11.82
2022-11-03T01:33:31.084Z,11.82
2022-11-03T01:34:33.268Z,11.73
2022-11-03T01:35:35.421Z,11.72
2022-11-03T01:36:37.570Z,11.76
2022-11-03T01:37:39.739Z,11.79
2022-11-03T01:38:42.887Z,11.81
2022-11-03T01:39:45.028Z,11.76
2022-11-03T01:40:47.141Z,11.72
2022-11-03T01:41:51.403Z,11.70
2022-11-03T01:42:53.505Z,11.65
2022-11-03T01:44:30.863Z,11.78
2022-11-03T01:45:32.972Z,11.72
2022-11-03T01:46:41.074Z,11.76
2022-11-03T01:47:44.071Z,11.66
2022-11-03T01:48:59.320Z,11.74
2022-11-03T01:50:15.623Z,11.81
2022-11-03T01:51:23.419Z,11.76
2022-11-03T01:52:37.047Z,11.71
2022-11-03T01:53:43.010Z,11.68
2022-11-03T01:54:50.187Z,11.64
2022-11-03T01:55:54.462Z,11.55
2022-11-03T01:56:58.924Z,11.63
2022-11-03T01:58:07.254Z,11.64
2022-11-03T01:59:10.138Z,11.58
2022-11-03T02:00:13.010Z,11.54
2022-11-03T02:01:15.701Z,11.46
2022-11-03T02:02:18.393Z,11.45
2022-11-03T02:03:23.007Z,11.53
2022-11-03T02:04:32.090Z,11.58
2022-11-03T02:05:34.720Z,11.42
2022-11-03T02:06:37.717Z,11.48
2022-11-03T02:08:05.335Z,11.61
2022-11-03T02:09:09.318Z,11.58
2022-11-03T02:10:11.531Z,11.35
2022-11-03T02:11:33.150Z,11.36
2022-11-03T02:12:35.933Z,11.40
2022-11-03T02:13:38.046Z,11.33
2022-11-03T02:14:51.343Z,11.46
2022-11-03T02:15:59.178Z,11.53
2022-11-03T02:17:06.085Z,11.51
2022-11-03T02:18:10.469Z,11.41
2022-11-03T02:19:35.009Z,11.54
2022-11-03T02:20:39.368Z,11.39
2022-11-03T02:21:54.928Z,11.50
2022-11-03T02:23:09.446Z,11.53
2022-11-03T02:24:42.496Z,11.48
2022-11-03T02:25:49.912Z,11.33
2022-11-03T02:26:56.009Z,11.43
2022-11-03T02:27:58.960Z,11.32
2022-11-03T02:29:01.079Z,11.26
2022-11-03T02:30:03.875Z,11.23
2022-11-03T02:31:12.622Z,11.34
2022-11-03T02:32:39.093Z,11.38
2022-11-03T02:34:10.275Z,11.36
2022-11-03T02:35:15.271Z,11.44
2022-11-03T02:36:28.581Z,11.18
2022-11-03T02:37:36.125Z,11.24
2022-11-03T02:38:45.356Z,11.18
2022-11-03T02:39:51.820Z,11.11
2022-11-03T02:40:57.434Z,11.02
2022-11-03T02:42:01.415Z,11.02
2022-11-03T02:43:06.149Z,11.08
2022-11-03T02:44:15.873Z,11.11
2022-11-03T02:45:21.324Z,11.05
2022-11-03T02:46:25.647Z,11.06
2022-11-03T02:47:30.385Z,11.08
2022-11-03T02:48:32.553Z,11.05
2022-11-03T02:49:47.443Z,11.17
2022-11-03T02:50:49.663Z,11.05
2022-11-03T02:52:06.133Z,11.22
2022-11-03T02:53:12.900Z,11.20
2022-11-03T02:54:26.177Z,11.25
2022-11-03T02:55:38.840Z,11.31
2022-11-03T02:56:50.058Z,11.23
2022-11-03T02:58:07.149Z,11.26
2022-11-03T02:59:14.841Z,11.24
2022-11-03T03:00:18.251Z,11.14
2022-11-03T03:01:29.136Z,11.13
2022-11-03T03:02:57.760Z,11.20
2022-11-03T03:04:08.238Z,11.17
2022-11-03T03:05:13.977Z,11.21
2022-11-03T03:06:22.127Z,11.22
2022-11-03T03:07:32.737Z,11.24
2022-11-03T03:08:38.870Z,11.22
2022-11-03T03:09:57.059Z,11.25
2022-11-03T03:11:03.281Z,11.30
2022-11-03T03:12:08.726Z,11.35
2022-11-03T03:13:15.207Z,11.38
2022-11-03T03:14:24.951Z,11.36
2022-11-03T03:15:34.069Z,11.39
2022-11-03T03:16:43.335Z,11.43
2022-11-03T03:17:53.667Z,11.45
2022-11-03T03:19:17.860Z,11.42
2022-11-03T03:20:34.538Z,11.47
2022-11-03T03:21:45.588Z,11.46
2022-11-03T03:22:50.026Z,11.38
2022-11-03T03:24:02.606Z,11.37
2022-11-03T03:25:13.715Z,11.32
2022-11-03T03:26:27.143Z,11.35
2022-11-03T03:27:33.055Z,11.23
2022-11-03T03:28:40.347Z,11.17
2022-11-03T03:29:51.073Z,11.20
2022-11-03T03:30:56.501Z,11.19
2022-11-03T03:32:03.760Z,11.22
2022-11-03T03:33:08.402Z,11.20
2022-11-03T03:34:31.383Z,11.08
2022-11-03T03:35:38.707Z,11.16
2022-11-03T03:36:43.155Z,11.12
2022-11-03T03:37:48.781Z,11.04
2022-11-03T03:38:58.907Z,11.12
2022-11-03T03:40:06.337Z,11.07
2022-11-03T03:41:12.786Z,11.03
2022-11-03T03:42:17.176Z,10.95
2022-11-03T03:43:22.049Z,10.95
2022-11-03T03:44:25.656Z,10.95
2022-11-03T03:45:29.777Z,10.86
2022-11-03T03:46:50.740Z,10.93
2022-11-03T03:48:06.311Z,10.99
2022-11-03T03:49:08.938Z,10.84
2022-11-03T03:50:11.777Z,10.83
2022-11-03T03:51:17.403Z,10.84
2022-11-03T03:52:20.184Z,10.76
2022-11-03T03:53:22.351Z,10.72
2022-11-03T03:54:24.713Z,10.73
2022-11-03T03:55:37.048Z,10.87
2022-11-03T03:56:54.163Z,10.76
2022-11-03T03:57:59.433Z,10.82
2022-11-03T03:59:02.551Z,10.90
2022-11-03T04:00:06.264Z,10.99
2022-11-03T04:01:14.602Z,10.96
2022-11-03T04:02:17.184Z,11.02
2022-11-03T04:03:22.172Z,11.11
2022-11-03T04:04:24.772Z,11.05
2022-11-03T04:05:27.515Z,11.06
2022-11-03T04:06:29.665Z,11.07
2022-11-03T04:07:50.046Z,11.15
2022-11-03T04:08:52.221Z,11.17
2022-11-03T04:09:54.505Z,11.14
2022-11-03T04:11:15.299Z,11.16
2022-11-03T04:12:36.380Z,11.18
2022-11-03T04:13:56.892Z,11.31
2022-11-03T04:15:17.210Z,11.14
2022-11-03T04:16:38.169Z,11.10
2022-11-03T04:18:00.993Z,11.25
2022-11-03T04:19:21.505Z,11.12
2022-11-03T04:20:42.594Z,11.08
2022-11-03T04:22:03.404Z,11.31
2022-11-03T04:23:06.797Z,11.16
2022-11-03T04:24:08.973Z,11.18
2022-11-03T04:25:11.086Z,11.18
2022-11-03T04:26:16.946Z,11.27
2022-11-03T04:27:35.271Z,11.33
2022-11-03T04:28:37.445Z,11.22
2022-11-03T04:29:39.803Z,11.22
2022-11-03T04:30:42.381Z,11.26
2022-11-03T04:31:44.687Z,11.27
2022-11-03T04:32:49.084Z,11.30
2022-11-03T04:33:51.207Z,11.30
2022-11-03T04:34:53.816Z,11.22
2022-11-03T04:35:59.252Z,11.33
2022-11-03T04:37:01.586Z,11.28
2022-11-03T04:38:20.123Z,11.41
2022-11-03T04:39:22.414Z,11.32
2022-11-03T04:40:24.880Z,11.27
2022-11-03T04:41:32.952Z,11.38
2022-11-03T04:42:35.622Z,11.25
2022-11-03T04:43:38.580Z,11.30
2022-11-03T04:44:40.699Z,11.28
2022-11-03T04:45:45.708Z,11.40
2022-11-03T04:46:48.053Z,11.25
2022-11-03T04:47:51.722Z,11.39
2022-11-03T04:48:55.184Z,11.37
2022-11-03T04:49:58.682Z,11.49
2022-11-03T04:51:10.419Z,11.48
2022-11-03T04:52:22.425Z,11.49
2022-11-03T04:53:24.746Z,11.41
2022-11-03T04:54:26.973Z,11.39
2022-11-03T04:55:29.095Z,11.36
2022-11-03T04:56:31.304Z,11.39
2022-11-03T04:57:33.471Z,11.39
2022-11-03T04:58:36.700Z,11.46
2022-11-03T04:59:39.174Z,11.44
2022-11-03T05:00:41.382Z,11.42
2022-11-03T05:01:45.882Z,11.35
2022-11-03T05:02:54.804Z,11.39
2022-11-03T05:03:58.563Z,11.36
2022-11-03T05:05:00.845Z,11.32
2022-11-03T05:06:15.302Z,11.48
2022-11-03T05:07:23.864Z,11.35
2022-11-03T05:08:26.011Z,11.33
2022-11-03T05:09:31.560Z,11.46
2022-11-03T05:10:33.774Z,11.35
2022-11-03T05:11:44.160Z,11.41
2022-11-03T05:12:47.867Z,11.38
2022-11-03T05:13:51.447Z,11.32
2022-11-03T05:14:58.050Z,11.31
2022-11-03T05:16:05.034Z,11.36
2022-11-03T05:17:18.241Z,11.39
2022-11-03T05:18:25.349Z,11.32
2022-11-03T05:19:33.210Z,11.39
2022-11-03T05:20:46.612Z,11.30
2022-11-03T05:21:50.916Z,11.34
2022-11-03T05:22:53.192Z,11.31
2022-11-03T05:24:03.175Z,11.43
2022-11-03T05:25:37.995Z,11.54
2022-11-03T05:26:40.902Z,11.44
2022-11-03T05:27:43.072Z,11.43
2022-11-03T05:28:49.314Z,11.57
2022-11-03T05:29:55.195Z,11.58
2022-11-03T05:31:00.367Z,11.46
2022-11-03T05:32:03.109Z,11.47
2022-11-03T05:33:25.468Z,11.70
2022-11-03T05:34:30.691Z,11.66
2022-11-03T05:35:32.908Z,11.47
2022-11-03T05:36:35.240Z,11.47
2022-11-03T05:37:37.445Z,11.53
2022-11-03T05:38:40.030Z,11.53
2022-11-03T05:39:46.324Z,11.63
2022-11-03T05:40:54.227Z,11.78
2022-11-03T05:41:58.690Z,11.71
2022-11-03T05:43:02.206Z,11.63
2022-11-03T05:44:33.808Z,11.72
2022-11-03T05:45:37.760Z,11.67
2022-11-03T05:46:39.932Z,11.67
2022-11-03T05:47:42.298Z,11.70
2022-11-03T05:48:44.946Z,11.69
2022-11-03T05:49:48.932Z,11.79
2022-11-03T05:50:51.535Z,11.70
2022-11-03T05:51:53.740Z,11.69
2022-11-03T05:53:38.386Z,11.90
2022-11-03T05:54:40.541Z,11.72
2022-11-03T05:55:43.494Z,11.70
2022-11-03T05:56:45.625Z,11.71
2022-11-03T05:57:47.796Z,11.60
2022-11-03T05:58:51.423Z,11.69
2022-11-03T05:59:53.860Z,11.63
2022-11-03T06:00:57.709Z,11.59
2022-11-03T06:02:01.214Z,11.58
2022-11-03T06:03:04.953Z,11.49
2022-11-03T06:04:25.612Z,11.67
2022-11-03T06:05:28.358Z,11.52
2022-11-03T06:06:38.102Z,11.66
2022-11-03T06:07:40.276Z,11.58
2022-11-03T06:08:44.998Z,11.53
2022-11-03T06:09:48.258Z,11.54
2022-11-03T06:10:54.359Z,11.65
2022-11-03T06:11:58.856Z,11.53
2022-11-03T06:13:26.852Z,11.65
2022-11-03T06:14:31.557Z,11.58
2022-11-03T06:15:35.233Z,11.51
2022-11-03T06:16:41.442Z,11.64
2022-11-03T06:17:43.629Z,11.50
2022-11-03T06:18:45.770Z,11.53
2022-11-03T06:19:49.306Z,11.59
2022-11-03T06:21:01.288Z,11.59
2022-11-03T06:22:22.565Z,11.59
2022-11-03T06:23:25.220Z,11.47
2022-11-03T06:24:31.304Z,11.46
2022-11-03T06:25:37.308Z,11.52
2022-11-03T06:26:40.280Z,11.41
2022-11-03T06:27:42.606Z,11.40
2022-11-03T06:28:45.416Z,11.41
2022-11-03T06:29:52.160Z,11.44
2022-11-03T06:30:54.348Z,11.30
2022-11-03T06:31:58.044Z,11.36
2022-11-03T06:33:22.104Z,11.44
2022-11-03T06:34:43.293Z,11.43
2022-11-03T06:35:45.899Z,11.24
2022-11-03T06:36:48.270Z,11.20
2022-11-03T06:37:50.468Z,11.21
2022-11-03T06:38:57.639Z,11.31
2022-11-03T06:40:24.730Z,11.32
2022-11-03T06:41:29.905Z,11.20
2022-11-03T06:42:33.331Z,11.19
2022-11-03T06:43:41.611Z,11.30
2022-11-03T06:44:49.610Z,11.30
2022-11-03T06:45:54.929Z,11.30
2022-11-03T06:47:01.424Z,11.28
2022-11-03T06:48:08.509Z,11.26
2022-11-03T06:49:35.076Z,11.36
2022-11-03T06:50:40.961Z,11.21
2022-11-03T06:51:46.777Z,11.23
2022-11-03T06:54:01.403Z,11.32
2022-11-03T06:55:15.577Z,11.40
2022-11-03T06:56:22.947Z,11.37
2022-11-03T06:57:25.057Z,11.38
2022-11-03T06:58:36.650Z,11.50
2022-11-03T06:59:38.732Z,11.28
2022-11-03T07:00:45.833Z,11.32
2022-11-03T07:01:55.310Z,11.55
2022-11-03T07:03:03.814Z,11.45
2022-11-03T07:04:15.964Z,11.63
2022-11-03T07:05:23.112Z,11.61
2022-11-03T07:06:37.566Z,11.71
2022-11-03T07:07:39.781Z,11.53
2022-11-03T07:09:04.872Z,11.63
2022-11-03T07:10:08.809Z,11.67
2022-11-03T07:11:18.861Z,11.76
2022-11-03T07:12:21.276Z,11.53
2022-11-03T07:13:25.074Z,11.66
2022-11-03T07:14:28.251Z,11.59
2022-11-03T07:15:33.288Z,11.67
2022-11-03T07:16:41.774Z,11.68
2022-11-03T07:17:43.983Z,11.59
2022-11-03T07:18:47.689Z,11.58
2022-11-03T07:19:49.994Z,11.65
2022-11-03T07:20:53.525Z,11.67
2022-11-03T07:22:01.847Z,11.79
2022-11-03T07:23:03.962Z,11.73
2022-11-03T07:24:29.877Z,12.02
2022-11-03T07:25:32.145Z,11.79
2022-11-03T07:26:34.833Z,11.80
2022-11-03T07:27:38.944Z,11.84
2022-11-03T07:28:41.802Z,11.81
2022-11-03T07:29:45.936Z,11.98
2022-11-03T07:30:48.105Z,11.89
2022-11-03T07:31:53.396Z,11.97
2022-11-03T07:33:02.581Z,12.01
2022-11-03T07:34:15.831Z,12.00
2022-11-03T07:35:17.895Z,11.98
2022-11-03T07:36:22.638Z,11.98
2022-11-03T07:37:26.250Z,12.05
2022-11-03T07:38:29.754Z,12.03
2022-11-03T07:39:38.300Z,12.18
2022-11-03T07:40:41.185Z,12.05
2022-11-03T07:41:44.073Z,12.07
2022-11-03T07:42:46.192Z,12.20
2022-11-03T07:43:54.865Z,12.33
2022-11-03T07:44:57.001Z,12.31
2022-11-03T07:46:01.767Z,12.37
2022-11-03T07:47:06.493Z,12.36
2022-11-03T07:48:36.425Z,12.64
2022-11-03T07:49:41.070Z,12.55
2022-11-03T07:50:43.213Z,12.46
2022-11-03T07:51:45.658Z,12.51
2022-11-03T07:52:47.792Z,12.53
2022-11-03T07:53:58.667Z,12.65
2022-11-03T07:55:00.688Z,12.76
2022-11-03T07:56:14.048Z,12.73
2022-11-03T07:57:29.477Z,12.83
2022-11-03T07:58:39.924Z,12.84
2022-11-03T07:59:45.006Z,12.73
2022-11-03T08:00:47.272Z,12.75
2022-11-03T08:01:55.117Z,12.97
2022-11-03T08:03:00.944Z,13.01
2022-11-03T08:04:08.352Z,13.12
2022-11-03T08:05:10.558Z,13.03
2022-11-03T08:06:14.687Z,12.93
2022-11-03T08:07:19.381Z,13.09
2022-11-03T08:08:21.484Z,13.19
2022-11-03T08:09:23.863Z,13.23
2022-11-03T08:10:26.019Z,13.28
2022-11-03T08:11:29.639Z,13.38
2022-11-03T08:12:32.269Z,13.41
2022-11-03T08:13:34.483Z,13.42
2022-11-03T08:14:37.933Z,13.43
2022-11-03T08:15:40.155Z,13.70
2022-11-03T08:16:42.594Z,13.60
2022-11-03T08:17:44.751Z,13.61
2022-11-03T08:18:47.373Z,13.68
2022-11-03T08:19:49.516Z,13.81
2022-11-03T08:20:51.864Z,13.99
2022-11-03T08:21:53.965Z,14.02
2022-11-03T08:24:18.205Z,13.99
2022-11-03T08:25:20.348Z,14.06
2022-11-03T08:26:22.571Z,14.20
2022-11-03T08:27:24.696Z,14.28
2022-11-03T08:28:26.852Z,14.30
2022-11-03T08:29:28.985Z,14.35
2022-11-03T08:30:31.259Z,14.49
2022-11-03T08:31:33.430Z,14.55
2022-11-03T08:32:35.620Z,14.47
2022-11-03T08:33:37.885Z,14.57
2022-11-03T08:34:40.086Z,14.45
2022-11-03T08:35:42.252Z,14.65
2022-11-03T08:36:44.448Z,14.64
2022-11-03T08:37:46.650Z,14.78
2022-11-03T08:38:48.880Z,14.76
2022-11-03T08:39:51.021Z,14.67
2022-11-03T08:40:55.389Z,14.87
2022-11-03T08:41:57.697Z,14.95
2022-11-03T08:43:02.921Z,14.91
2022-11-03T08:44:05.996Z,14.91
2022-11-03T08:45:08.573Z,14.92
2022-11-03T08:46:17.097Z,14.91
2022-11-03T08:47:20.071Z,14.90
2022-11-03T08:48:29.478Z,15.02
2022-11-03T08:49:31.613Z,14.86
2022-11-03T08:50:33.749Z,14.77
2022-11-03T08:51:38.969Z,14.93
2022-11-03T08:52:45.291Z,14.90
2022-11-03T08:53:50.639Z,15.02
2022-11-03T08:54:52.904Z,14.97
2022-11-03T08:55:55.926Z,14.97
2022-11-03T08:56:58.055Z,15.00
2022-11-03T08:58:00.191Z,14.99
2022-11-03T08:59:02.321Z,14.99
2022-11-03T09:00:06.000Z,14.99
2022-11-03T09:01:08.215Z,14.98
2022-11-03T09:03:54.804Z,14.98
2022-11-03T09:04:57.287Z,14.91
2022-11-03T09:05:59.424Z,15.06
2022-11-03T09:07:01.614Z,15.06
2022-11-03T09:10:48.048Z,14.87
2022-11-03T09:11:50.205Z,14.81
2022-11-03T09:12:52.452Z,14.74
2022-11-03T09:13:54.618Z,14.75
2022-11-03T09:14:56.757Z,14.74
2022-11-03T09:15:59.149Z,14.65
2022-11-03T09:18:08.609Z,14.92
2022-11-03T09:19:10.925Z,14.99
2022-11-03T09:20:13.467Z,15.20
2022-11-03T09:21:15.616Z,15.32
2022-11-03T09:22:17.785Z,15.25
2022-11-03T09:23:20.097Z,15.21
2022-11-03T09:24:22.443Z,15.18
2022-11-03T09:25:24.584Z,15.35
2022-11-03T09:26:27.476Z,15.53
2022-11-03T09:27:29.579Z,15.71
2022-11-03T09:28:31.811Z,15.63
2022-11-03T09:29:58.314Z,15.59
2022-11-03T09:30:56.347Z,15.92
2022-11-03T09:31:58.727Z,15.91
2022-11-03T09:33:00.844Z,16.00
2022-11-03T09:34:03.220Z,16.26
2022-11-03T09:35:06.312Z,16.50
2022-11-03T09:36:08.637Z,16.21
2022-11-03T09:37:10.828Z,16.38
2022-11-03T09:38:12.943Z,16.42
2022-11-03T09:39:15.065Z,16.55
2022-11-03T09:40:17.700Z,16.69
2022-11-03T09:41:27.971Z,16.57
2022-11-03T09:42:42.681Z,16.69
2022-11-03T09:43:45.674Z,16.68
2022-11-03T09:44:49.218Z,16.58
2022-11-03T09:45:51.563Z,16.55
2022-11-03T09:46:57.816Z,16.68
2022-11-03T09:48:02.122Z,16.61
2022-11-03T09:49:05.835Z,16.55
2022-11-03T09:50:14.477Z,16.68
2022-11-03T09:51:21.920Z,16.66
2022-11-03T09:52:24.722Z,16.54
2022-11-03T09:53:26.974Z,16.65
2022-11-03T09:54:32.570Z,16.62
2022-11-03T09:55:35.054Z,16.93
2022-11-03T09:56:37.600Z,16.90
2022-11-03T09:57:39.833Z,16.93
2022-11-03T09:58:41.996Z,17.06
2022-11-03T09:59:46.574Z,17.05
2022-11-03T10:00:49.093Z,17.01
2022-11-03T10:01:53.604Z,17.14
2022-11-03T10:02:56.149Z,17.05
2022-11-03T10:04:00.812Z,17.25
2022-11-03T10:05:08.250Z,17.09
2022-11-03T10:06:15.204Z,17.24
2022-11-03T10:07:17.538Z,17.40
2022-11-03T10:08:31.868Z,17.72
2022-11-03T10:09:34.517Z,17.52
2022-11-03T10:10:37.785Z,17.53
2022-11-03T10:11:40.157Z,17.28
2022-11-03T10:12:42.694Z,17.50
2022-11-03T10:13:52.963Z,17.49
2022-11-03T10:14:55.490Z,17.31
2022-11-03T10:16:00.244Z,17.41
2022-11-03T10:17:02.542Z,17.35
2022-11-03T10:18:05.913Z,17.41
2022-11-03T10:19:12.219Z,17.53
2022-11-03T10:20:17.057Z,17.54
2022-11-03T10:21:25.700Z,17.32
2022-11-03T10:22:27.923Z,17.16
2022-11-03T10:23:30.094Z,17.12
2022-11-03T10:24:32.281Z,17.22
2022-11-03T10:25:41.978Z,17.25
2022-11-03T10:26:51.310Z,17.08
2022-11-03T10:28:19.942Z,17.02
2022-11-03T10:29:24.528Z,16.93
2022-11-03T10:30:29.612Z,16.82
2022-11-03T10:31:39.937Z,16.84
2022-11-03T10:32:42.281Z,16.76
2022-11-03T10:33:55.628Z,16.91
2022-11-03T10:34:58.003Z,16.75
2022-11-03T10:36:02.291Z,16.69
2022-11-03T10:37:23.578Z,16.93
2022-11-03T10:38:28.502Z,16.68
2022-11-03T10:39:30.809Z,16.70
2022-11-03T10:40:52.250Z,16.87
2022-11-03T10:41:58.994Z,16.82
2022-11-03T10:43:01.165Z,16.85
2022-11-03T10:44:18.534Z,17.05
2022-11-03T10:45:21.812Z,17.13
2022-11-03T10:46:44.716Z,17.17
2022-11-03T10:48:01.285Z,17.26
2022-11-03T10:49:14.280Z,17.29
2022-11-03T10:50:23.332Z,17.26
2022-11-03T10:51:25.444Z,17.20
2022-11-03T10:52:29.997Z,17.31
2022-11-03T10:53:32.508Z,17.12
2022-11-03T10:54:36.140Z,17.20
2022-11-03T10:55:40.140Z,17.33
2022-11-03T10:56:43.151Z,17.47
2022-11-03T10:57:51.974Z,17.44
2022-11-03T10:58:56.237Z,17.40
2022-11-03T10:59:58.493Z,17.64
2022-11-03T11:01:00.840Z,17.68
2022-11-03T11:02:11.658Z,17.76
2022-11-03T11:03:16.587Z,17.72
2022-11-03T11:04:22.055Z,17.97
2022-11-03T11:05:24.853Z,18.11
2022-11-03T11:06:29.664Z,18.29
2022-11-03T11:07:43.014Z,18.14
2022-11-03T11:08:45.219Z,17.92
2022-11-03T11:09:47.552Z,18.04
2022-11-03T11:10:49.799Z,17.89
2022-11-03T11:12:15.398Z,18.00
2022-11-03T11:13:23.697Z,17.78
2022-11-03T11:14:25.801Z,17.84
2022-11-03T11:15:44.690Z,18.11
2022-11-03T11:16:50.069Z,17.85
2022-11-03T11:17:52.273Z,17.65
2022-11-03T11:18:54.468Z,17.34
2022-11-03T11:20:18.346Z,17.50
2022-11-03T11:21:20.477Z,17.44
2022-11-03T11:22:23.723Z,17.48
2022-11-03T11:23:28.761Z,17.71
2022-11-03T11:24:42.969Z,17.69
2022-11-03T11:26:10.529Z,17.68
2022-11-03T11:27:34.606Z,17.60
2022-11-03T11:28:41.153Z,17.53
2022-11-03T11:29:43.351Z,17.67
2022-11-03T11:30:58.674Z,17.90
2022-11-03T11:32:39.545Z,17.79
2022-11-03T11:33:41.688Z,17.66
2022-11-03T11:34:43.823Z,17.66
2022-11-03T11:35:48.955Z,17.63
2022-11-03T11:36:53.932Z,17.75
2022-11-03T11:37:56.440Z,17.44
2022-11-03T11:38:59.996Z,17.52
2022-11-03T11:40:03.366Z,17.34
2022-11-03T11:41:05.579Z,17.27
2022-11-03T11:42:19.431Z,17.27
2022-11-03T11:43:26.541Z,17.29
2022-11-03T11:44:40.214Z,17.37
2022-11-03T11:46:19.712Z,17.31
2022-11-03T11:47:40.293Z,17.25
2022-11-03T11:48:42.476Z,17.16
2022-11-03T11:49:44.616Z,17.15
2022-11-03T11:50:46.987Z,16.96
2022-11-03T11:51:49.192Z,16.92
2022-11-03T11:53:30.608Z,16.91
2022-11-03T11:54:33.957Z,16.66
2022-11-03T11:55:47.222Z,16.86
2022-11-03T11:56:50.182Z,16.78
2022-11-03T11:57:53.622Z,16.80
2022-11-03T11:58:56.291Z,16.74
2022-11-03T11:59:58.476Z,16.58
2022-11-03T12:01:06.672Z,16.73
2022-11-03T12:02:18.848Z,16.81
2022-11-03T12:03:26.591Z,16.64
2022-11-03T12:04:31.599Z,16.59
2022-11-03T12:05:35.841Z,16.68
2022-11-03T12:06:40.120Z,16.84
2022-11-03T12:07:42.305Z,16.72
2022-11-03T12:08:44.517Z,16.82
2022-11-03T12:09:46.971Z,16.74
2022-11-03T12:10:53.795Z,16.81
2022-11-03T12:12:07.077Z,16.69
2022-11-03T12:13:39.222Z,16.75
2022-11-03T12:14:41.472Z,16.81
2022-11-03T12:15:50.830Z,17.24
2022-11-03T12:16:53.931Z,17.32
2022-11-03T12:17:56.064Z,17.33
2022-11-03T12:19:36.976Z,17.57
2022-11-03T12:20:48.454Z,17.83
2022-11-03T12:21:51.904Z,17.75
2022-11-03T12:22:54.084Z,17.85
2022-11-03T12:23:56.246Z,17.87
2022-11-03T12:25:03.908Z,17.63
2022-11-03T12:26:06.260Z,17.45
2022-11-03T12:27:26.414Z,17.53
2022-11-03T12:28:36.333Z,17.45
2022-11-03T12:29:38.468Z,17.20
2022-11-03T12:30:40.568Z,17.12
2022-11-03T12:31:42.718Z,17.20
2022-11-03T12:32:45.894Z,17.21
2022-11-03T12:33:48.149Z,17.09
2022-11-03T12:34:50.516Z,16.93
2022-11-03T12:35:52.645Z,16.91
2022-11-03T12:36:56.366Z,16.96
2022-11-03T12:37:58.738Z,16.75
2022-11-03T12:39:01.009Z,16.81
2022-11-03T12:40:03.457Z,16.83
2022-11-03T12:41:21.272Z,16.89
2022-11-03T12:42:24.971Z,16.65
2022-11-03T12:43:27.257Z,16.64
2022-11-03T12:44:29.724Z,16.79
2022-11-03T12:45:31.905Z,16.62
2022-11-03T12:46:33.992Z,16.55
2022-11-03T12:47:36.137Z,16.55
2022-11-03T12:48:43.690Z,16.47
2022-11-03T12:49:45.775Z,16.42
2022-11-03T12:50:47.943Z,16.38
2022-11-03T12:51:50.064Z,16.34
2022-11-03T12:52:52.189Z,16.20
2022-11-03T12:53:54.380Z,16.16
2022-11-03T12:54:57.096Z,16.13
2022-11-03T12:55:59.221Z,16.13
2022-11-03T12:57:01.439Z,16.24
2022-11-03T12:58:04.035Z,16.20
2022-11-03T12:59:06.576Z,16.15
2022-11-03T13:00:09.099Z,16.22
2022-11-03T13:01:11.745Z,16.08
2022-11-03T13:02:14.144Z,16.14
2022-11-03T13:03:16.351Z,16.06
2022-11-03T13:04:18.467Z,15.99
2022-11-03T13:05:20.584Z,15.98
2022-11-03T13:06:22.673Z,15.98
2022-11-03T13:07:30.344Z,16.03
2022-11-03T13:08:34.022Z,15.86
2022-11-03T13:09:36.228Z,15.80
2022-11-03T13:10:38.437Z,15.97
2022-11-03T13:11:59.128Z,15.91
2022-11-03T13:13:01.252Z,16.09
2022-11-03T13:14:04.882Z,16.08
2022-11-03T13:15:08.593Z,16.23
2022-11-03T13:16:10.875Z,16.22
2022-11-03T13:17:13.263Z,16.27
2022-11-03T13:18:15.454Z,16.21
2022-11-03T13:19:17.648Z,16.03
2022-11-03T13:20:19.785Z,15.88
2022-11-03T13:21:22.124Z,15.99
2022-11-03T13:22:24.229Z,15.92
2022-11-03T13:23:26.365Z,16.00
2022-11-03T13:24:28.571Z,15.93
2022-11-03T13:25:31.263Z,16.08
2022-11-03T13:26:33.381Z,16.02
2022-11-03T13:27:35.787Z,15.96
2022-11-03T13:28:37.913Z,15.97
2022-11-03T13:29:40.177Z,16.05
2022-11-03T13:30:42.269Z,16.13
2022-11-03T13:31:44.401Z,16.08
2022-11-03T13:32:46.506Z,16.08
2022-11-03T13:33:48.765Z,15.95
2022-11-03T13:34:50.936Z,15.88
2022-11-03T13:35:53.136Z,15.96
2022-11-03T13:36:55.410Z,16.02
2022-11-03T13:37:57.516Z,15.93
2022-11-03T13:38:59.625Z,15.80
2022-11-03T13:40:01.912Z,15.72
2022-11-03T13:41:08.669Z,15.66
2022-11-03T13:42:11.443Z,15.73
2022-11-03T13:43:13.760Z,15.72
2022-11-03T13:44:16.055Z,15.60
2022-11-03T13:45:18.150Z,15.62
2022-11-03T13:46:20.279Z,15.55
2022-11-03T13:47:33.529Z,15.58
2022-11-03T13:50:14.009Z,15.62
2022-11-03T13:51:18.435Z,15.57
2022-11-03T13:52:21.262Z,15.54
2022-11-03T13:56:11.541Z,15.55
2022-11-03T14:00:05.052Z,15.67
2022-11-03T14:01:14.625Z,15.70
2022-11-03T14:05:01.442Z,15.63
2022-11-03T14:06:04.434Z,15.66
2022-11-03T14:07:07.364Z,15.68
2022-11-03T14:08:09.717Z,15.62
2022-11-03T14:09:12.018Z,15.64
2022-11-03T14:10:14.130Z,15.56
2022-11-03T14:11:34.425Z,15.44
2022-11-03T14:12:36.878Z,15.48
2022-11-03T14:13:38.961Z,15.51
2022-11-03T14:14:41.383Z,15.63
2022-11-03T14:15:43.544Z,15.53
2022-11-03T14:16:45.807Z,15.57
2022-11-03T14:17:47.953Z,15.52
2022-11-03T14:18:50.032Z,15.67
2022-11-03T14:19:55.562Z,15.57
2022-11-03T14:21:01.555Z,15.47
2022-11-03T14:22:04.335Z,15.38
2022-11-03T14:23:06.805Z,15.47
2022-11-03T14:24:09.406Z,15.31
2022-11-03T14:25:11.519Z,15.42
2022-11-03T14:26:32.843Z,15.51
2022-11-03T14:27:35.956Z,15.49
2022-11-03T14:28:38.472Z,15.43
2022-11-03T14:29:40.587Z,15.38
2022-11-03T14:30:42.710Z,15.37
2022-11-03T14:31:44.915Z,15.29